Elkins-Randolph Co-Jennings Randolph Field
KEKN : now visible

Aeroporto :











RITROVATECI SU...

 
LOGIN :

Iscrizione | Disclaimer

   EN    FR    IT 

 









Sommario :    VFR   VFR Marginale   IFR   IFR Intensivo   IFR Molto Intensivo
Visibilità : 
Base nubi : 
>= 8 km
>= 3000ft
5 / 8 km
1000 / 3000 ft
1500m / 5 km
500 / 1000 ft
800 / 1500m
200 / 500 ft
< 800m
< 200 ft
Simboli :   Temporali  Nebbia  Neve Forte  Precipitazioni Forti  Vento > 20 kt






- Altitudine del aeroporto : 1987 ft


KEKN - Elkins-Randolph Co-Jennings Randolph Field

ULTIMO METAR :
  • 182210Z AUTO 31003KT 2 1/2SM -RA BR FEW009 BKN017 OVC021 10/08 A3001 RMK AO2 P0000 T01000083

METARs OBSOLETI :
  • 182151Z AUTO 00000KT 2SM -RA BR OVC017 10/09 A2999 RMK AO2 SLP165 P0006 T01000089
  • 182141Z AUTO 00000KT 1 3/4SM -RA BR FEW009 OVC018 10/09 A3000 RMK AO2 P0005 T01000089
  • 182129Z AUTO 00000KT 2SM RA BR FEW009 FEW012 OVC017 10/08 A3000 RMK AO2 P0003 T01000083
  • 182103Z AUTO 00000KT 3SM -RA BR BKN019 OVC025 10/08 A3000 RMK AO2 P0001 T01000083
  • 182051Z AUTO 00000KT 2 1/2SM RA BR BKN019 OVC025 10/08 A3000 RMK AO2 SLP165 P0010 60019 T01000083 58001
  • 182029Z AUTO 00000KT 2 1/2SM RA BR BKN019 OVC024 10/08 A3001 RMK AO2 P0005 T01000083
  • 182011Z AUTO 15005KT 1 3/4SM RA BR OVC023 10/08 A3000 RMK AO2 P0003 T01000083
  • 181951Z AUTO 00000KT 3SM -RA BR OVC024 11/08 A3000 RMK AO2 SLP165 P0006 T01060083
  • 181937Z AUTO 12003KT 2 1/2SM RA BR OVC029 10/08 A3000 RMK AO2 P0005 T01000083

TAF KEKN
Valido dal 18 a 21 ore il 19 a 18 ore UTC


182105Z 1821/1918 23007KT 2SM SHRA OVC019
FM190000 34012G20KT 2SM -SHRA OVC008
FM190500 31008KT P6SM OVC014
FM191600 31007KT P6SM SCT025



MetMap, La meteo Aeronautica in un colpo d'occhio ! - Copyright ORBIFLY Dicembre 2007 - Disclaimer

ORBIFLY MET'MAP TEAM :

Programmazione e sviluppo : Alexandra Zaïnal
Concezione : Baudouin d'Aumeries
Aiuto per la programmazione : Marc-Olivier Méhu
Supporto tecnico e logistico : Manuel Goepfert
Aiuto per la traduzione : Arnaldo La Scala

Contatto : metmap@orbifly.com




FONTI E CREDITI :

   NOAA       Earth
Advisory